Ada, Minnesota
Current Conditions -  °F | °C
As of 7:15 AM on Saturday 01 Nov 2014 (Local Time) from K3N8 Reporting Station
Clear Clear  
Wind Chill: 20°   Ceiling: Unl
Heat Index: 31°   Visibility: 10mi
Dew Point: 18°   Wind: 14mph
Humidity: 60%   Direction: 170°S
Pressure: 30.24"   Gusts: 20mph
Location:  47.3°N, 96.52°W
Report Text: K3N8 011215Z AUTO 17012G17KT 10SM CLR M01/M08 A3024 RMK AO2 T10071076
Loading
Personal Weather Stations






























Interactive Weather Map
Tropical Storm Tracking
New forecast layout! Learn more

10-Day Weather Forecast

Advertisements
Track Severe Weather on mobile